sensor_id;sensor_type;location;lat;lon;timestamp;pressure;altitude;pressure_sealevel;temperature
76898;BMP180;65856;52.178;21.176;2023-04-06T00:01:14;101058.20;;;2.70
76898;BMP180;65856;52.178;21.176;2023-04-06T00:03:45;101059.40;;;2.70
76898;BMP180;65856;52.178;21.176;2023-04-06T00:06:15;101058.20;;;2.70
76898;BMP180;65856;52.178;21.176;2023-04-06T00:08:46;101054.40;;;2.70
76898;BMP180;65856;52.178;21.176;2023-04-06T00:11:16;101056.20;;;2.70
76898;BMP180;65856;52.178;21.176;2023-04-06T00:13:47;101057.00;;;2.66
76898;BMP180;65856;52.178;21.176;2023-04-06T00:16:18;101056.00;;;2.62
76898;BMP180;65856;52.178;21.176;2023-04-06T00:18:49;101055.00;;;2.60
76898;BMP180;65856;52.178;21.176;2023-04-06T00:21:19;101050.40;;;2.60
76898;BMP180;65856;52.178;21.176;2023-04-06T00:23:50;101044.80;;;2.60
76898;BMP180;65856;52.178;21.176;2023-04-06T00:26:21;101044.60;;;2.60
76898;BMP180;65856;52.178;21.176;2023-04-06T00:28:51;101038.60;;;2.60
76898;BMP180;65856;52.178;21.176;2023-04-06T00:31:22;101044.00;;;2.60
76898;BMP180;65856;52.178;21.176;2023-04-06T00:33:52;101037.80;;;2.60
76898;BMP180;65856;52.178;21.176;2023-04-06T00:36:23;101028.00;;;2.68
76898;BMP180;65856;52.178;21.176;2023-04-06T00:38:54;101030.20;;;2.66
76898;BMP180;65856;52.178;21.176;2023-04-06T00:41:25;101028.60;;;2.60
76898;BMP180;65856;52.178;21.176;2023-04-06T00:43:56;101028.60;;;2.60
76898;BMP180;65856;52.178;21.176;2023-04-06T00:46:26;101030.40;;;2.60
76898;BMP180;65856;52.178;21.176;2023-04-06T00:48:57;101025.20;;;2.70
76898;BMP180;65856;52.178;21.176;2023-04-06T00:51:28;101021.00;;;2.70
76898;BMP180;65856;52.178;21.176;2023-04-06T00:53:58;101020.60;;;2.68
76898;BMP180;65856;52.178;21.176;2023-04-06T00:56:29;101020.00;;;2.60
76898;BMP180;65856;52.178;21.176;2023-04-06T00:59:00;101016.80;;;2.60
76898;BMP180;65856;52.178;21.176;2023-04-06T01:01:32;101014.00;;;2.60
76898;BMP180;65856;52.178;21.176;2023-04-06T01:04:02;101013.40;;;2.60
76898;BMP180;65856;52.178;21.176;2023-04-06T01:06:33;101012.20;;;2.60
76898;BMP180;65856;52.178;21.176;2023-04-06T01:09:04;101006.80;;;2.60
76898;BMP180;65856;52.178;21.176;2023-04-06T01:11:36;101004.80;;;2.60
76898;BMP180;65856;52.178;21.176;2023-04-06T01:14:07;101004.80;;;2.60
76898;BMP180;65856;52.178;21.176;2023-04-06T01:16:38;101003.60;;;2.60
76898;BMP180;65856;52.178;21.176;2023-04-06T01:19:13;101008.40;;;2.60
76898;BMP180;65856;52.178;21.176;2023-04-06T01:21:44;101004.40;;;2.60
76898;BMP180;65856;52.178;21.176;2023-04-06T01:24:14;101007.60;;;2.60
76898;BMP180;65856;52.178;21.176;2023-04-06T01:26:46;101006.40;;;2.60
76898;BMP180;65856;52.178;21.176;2023-04-06T01:29:16;101002.60;;;2.60
76898;BMP180;65856;52.178;21.176;2023-04-06T01:31:47;100995.80;;;2.60
76898;BMP180;65856;52.178;21.176;2023-04-06T01:34:18;100996.40;;;2.58
76898;BMP180;65856;52.178;21.176;2023-04-06T01:36:48;100992.60;;;2.50
76898;BMP180;65856;52.178;21.176;2023-04-06T01:39:20;100987.00;;;2.50
76898;BMP180;65856;52.178;21.176;2023-04-06T01:41:50;100982.60;;;2.50
76898;BMP180;65856;52.178;21.176;2023-04-06T01:44:21;100979.00;;;2.50
76898;BMP180;65856;52.178;21.176;2023-04-06T01:46:52;100985.80;;;2.50
76898;BMP180;65856;52.178;21.176;2023-04-06T01:49:23;100988.20;;;2.48
76898;BMP180;65856;52.178;21.176;2023-04-06T01:51:53;100989.40;;;2.42
76898;BMP180;65856;52.178;21.176;2023-04-06T01:54:24;100990.20;;;2.40
76898;BMP180;65856;52.178;21.176;2023-04-06T01:56:55;100985.40;;;2.40
76898;BMP180;65856;52.178;21.176;2023-04-06T01:59:26;100988.00;;;2.40
76898;BMP180;65856;52.178;21.176;2023-04-06T02:01:56;100986.00;;;2.40
76898;BMP180;65856;52.178;21.176;2023-04-06T02:04:27;100984.00;;;2.34
76898;BMP180;65856;52.178;21.176;2023-04-06T02:06:58;100985.60;;;2.40
76898;BMP180;65856;52.178;21.176;2023-04-06T02:09:28;100985.20;;;2.40
76898;BMP180;65856;52.178;21.176;2023-04-06T02:11:59;100978.60;;;2.30
76898;BMP180;65856;52.178;21.176;2023-04-06T02:14:30;100978.40;;;2.30
76898;BMP180;65856;52.178;21.176;2023-04-06T02:17:01;100975.00;;;2.30
76898;BMP180;65856;52.178;21.176;2023-04-06T02:19:31;100970.60;;;2.30
76898;BMP180;65856;52.178;21.176;2023-04-06T02:22:02;100967.40;;;2.22
76898;BMP180;65856;52.178;21.176;2023-04-06T02:24:33;100967.80;;;2.22
76898;BMP180;65856;52.178;21.176;2023-04-06T02:27:03;100961.40;;;2.20
76898;BMP180;65856;52.178;21.176;2023-04-06T02:29:35;100962.20;;;2.20
76898;BMP180;65856;52.178;21.176;2023-04-06T02:32:06;100962.20;;;2.20
76898;BMP180;65856;52.178;21.176;2023-04-06T02:34:37;100956.80;;;2.14
76898;BMP180;65856;52.178;21.176;2023-04-06T02:37:07;100959.20;;;2.10
76898;BMP180;65856;52.178;21.176;2023-04-06T02:39:38;100955.40;;;2.10
76898;BMP180;65856;52.178;21.176;2023-04-06T02:42:08;100957.60;;;2.10
76898;BMP180;65856;52.178;21.176;2023-04-06T02:44:39;100959.40;;;2.06
76898;BMP180;65856;52.178;21.176;2023-04-06T02:47:10;100954.80;;;2.10
76898;BMP180;65856;52.178;21.176;2023-04-06T02:49:40;100949.40;;;2.00
76898;BMP180;65856;52.178;21.176;2023-04-06T02:52:11;100943.20;;;1.96
76898;BMP180;65856;52.178;21.176;2023-04-06T02:54:42;100945.00;;;1.90
76898;BMP180;65856;52.178;21.176;2023-04-06T02:57:12;100952.40;;;1.90
76898;BMP180;65856;52.178;21.176;2023-04-06T02:59:43;100945.80;;;1.90
76898;BMP180;65856;52.178;21.176;2023-04-06T03:02:13;100949.80;;;1.90
76898;BMP180;65856;52.178;21.176;2023-04-06T03:04:45;100947.00;;;1.90
76898;BMP180;65856;52.178;21.176;2023-04-06T03:07:16;100952.00;;;1.90
76898;BMP180;65856;52.178;21.176;2023-04-06T03:09:46;100951.60;;;1.84
76898;BMP180;65856;52.178;21.176;2023-04-06T03:12:17;100954.00;;;1.80
76898;BMP180;65856;52.178;21.176;2023-04-06T03:14:48;100956.80;;;1.80
76898;BMP180;65856;52.178;21.176;2023-04-06T03:17:18;100958.40;;;1.80
76898;BMP180;65856;52.178;21.176;2023-04-06T03:19:49;100954.60;;;1.80
76898;BMP180;65856;52.178;21.176;2023-04-06T03:22:20;100954.60;;;1.80
76898;BMP180;65856;52.178;21.176;2023-04-06T03:24:51;100955.20;;;1.70
76898;BMP180;65856;52.178;21.176;2023-04-06T03:27:22;100952.80;;;1.74
76898;BMP180;65856;52.178;21.176;2023-04-06T03:29:52;100957.60;;;1.76
76898;BMP180;65856;52.178;21.176;2023-04-06T03:32:23;100954.20;;;1.72
76898;BMP180;65856;52.178;21.176;2023-04-06T03:34:54;100955.60;;;1.70
76898;BMP180;65856;52.178;21.176;2023-04-06T03:37:24;100955.80;;;1.72
76898;BMP180;65856;52.178;21.176;2023-04-06T03:39:56;100953.00;;;1.70
76898;BMP180;65856;52.178;21.176;2023-04-06T03:42:26;100956.00;;;1.70
76898;BMP180;65856;52.178;21.176;2023-04-06T03:44:57;100960.80;;;1.70
76898;BMP180;65856;52.178;21.176;2023-04-06T03:47:27;100956.20;;;1.70
76898;BMP180;65856;52.178;21.176;2023-04-06T03:49:58;100954.00;;;1.70
76898;BMP180;65856;52.178;21.176;2023-04-06T03:52:29;100958.20;;;1.70
76898;BMP180;65856;52.178;21.176;2023-04-06T03:54:59;100959.60;;;1.70
76898;BMP180;65856;52.178;21.176;2023-04-06T03:57:30;100960.20;;;1.68
76898;BMP180;65856;52.178;21.176;2023-04-06T04:00:01;100956.20;;;1.66
76898;BMP180;65856;52.178;21.176;2023-04-06T04:02:31;100952.60;;;1.68
76898;BMP180;65856;52.178;21.176;2023-04-06T04:05:02;100954.20;;;1.70
76898;BMP180;65856;52.178;21.176;2023-04-06T04:07:33;100957.00;;;1.70
76898;BMP180;65856;52.178;21.176;2023-04-06T04:10:04;100958.40;;;1.70
76898;BMP180;65856;52.178;21.176;2023-04-06T04:12:35;100956.20;;;1.70
76898;BMP180;65856;52.178;21.176;2023-04-06T04:15:08;100957.20;;;1.70
76898;BMP180;65856;52.178;21.176;2023-04-06T04:17:39;100953.00;;;1.70
76898;BMP180;65856;52.178;21.176;2023-04-06T04:20:13;100953.00;;;1.70
76898;BMP180;65856;52.178;21.176;2023-04-06T04:22:44;100951.60;;;1.70
76898;BMP180;65856;52.178;21.176;2023-04-06T04:25:14;100949.20;;;1.70
76898;BMP180;65856;52.178;21.176;2023-04-06T04:27:45;100949.00;;;1.70
76898;BMP180;65856;52.178;21.176;2023-04-06T04:30:16;100946.40;;;1.70
76898;BMP180;65856;52.178;21.176;2023-04-06T04:32:47;100947.20;;;1.70
76898;BMP180;65856;52.178;21.176;2023-04-06T04:35:18;100944.40;;;1.70
76898;BMP180;65856;52.178;21.176;2023-04-06T04:37:48;100941.00;;;1.74
76898;BMP180;65856;52.178;21.176;2023-04-06T04:40:19;100933.60;;;1.74
76898;BMP180;65856;52.178;21.176;2023-04-06T04:42:50;100934.80;;;1.78
76898;BMP180;65856;52.178;21.176;2023-04-06T04:45:21;100937.60;;;1.80
76898;BMP180;65856;52.178;21.176;2023-04-06T04:47:51;100933.80;;;1.80
76898;BMP180;65856;52.178;21.176;2023-04-06T04:50:22;100930.60;;;1.80
76898;BMP180;65856;52.178;21.176;2023-04-06T04:52:53;100928.60;;;1.80
76898;BMP180;65856;52.178;21.176;2023-04-06T04:55:23;100926.40;;;1.80
76898;BMP180;65856;52.178;21.176;2023-04-06T04:57:54;100926.80;;;1.80
76898;BMP180;65856;52.178;21.176;2023-04-06T05:00:25;100924.60;;;1.90
76898;BMP180;65856;52.178;21.176;2023-04-06T05:02:55;100925.80;;;1.86
76898;BMP180;65856;52.178;21.176;2023-04-06T05:05:26;100929.80;;;2.30
76898;BMP180;65856;52.178;21.176;2023-04-06T05:07:57;100926.60;;;2.30
76898;BMP180;65856;52.178;21.176;2023-04-06T05:10:28;100937.20;;;2.50
76898;BMP180;65856;52.178;21.176;2023-04-06T05:12:58;100938.60;;;2.70
76898;BMP180;65856;52.178;21.176;2023-04-06T05:15:29;100937.20;;;2.60
76898;BMP180;65856;52.178;21.176;2023-04-06T05:18:00;100928.00;;;2.58
76898;BMP180;65856;52.178;21.176;2023-04-06T05:20:31;100927.40;;;2.50
76898;BMP180;65856;52.178;21.176;2023-04-06T05:23:01;100932.20;;;2.48
76898;BMP180;65856;52.178;21.176;2023-04-06T05:25:33;100931.60;;;2.44
76898;BMP180;65856;52.178;21.176;2023-04-06T05:28:03;100931.60;;;2.44
76898;BMP180;65856;52.178;21.176;2023-04-06T05:30:34;100927.80;;;2.50
76898;BMP180;65856;52.178;21.176;2023-04-06T05:33:05;100923.80;;;2.50
76898;BMP180;65856;52.178;21.176;2023-04-06T05:35:36;100925.40;;;2.62
76898;BMP180;65856;52.178;21.176;2023-04-06T05:38:08;100929.20;;;3.30
76898;BMP180;65856;52.178;21.176;2023-04-06T05:40:40;100925.80;;;3.78
76898;BMP180;65856;52.178;21.176;2023-04-06T05:43:11;100921.40;;;3.68
76898;BMP180;65856;52.178;21.176;2023-04-06T05:45:41;100916.20;;;3.40
76898;BMP180;65856;52.178;21.176;2023-04-06T05:48:14;100920.80;;;3.30
76898;BMP180;65856;52.178;21.176;2023-04-06T05:50:49;100917.00;;;3.20
76898;BMP180;65856;52.178;21.176;2023-04-06T05:53:20;100908.40;;;3.10
76898;BMP180;65856;52.178;21.176;2023-04-06T05:55:50;100908.80;;;3.10
76898;BMP180;65856;52.178;21.176;2023-04-06T05:58:21;100911.60;;;3.10
76898;BMP180;65856;52.178;21.176;2023-04-06T06:00:55;100912.00;;;3.10
76898;BMP180;65856;52.178;21.176;2023-04-06T06:03:26;100908.20;;;3.00
76898;BMP180;65856;52.178;21.176;2023-04-06T06:06:02;100912.40;;;3.00
76898;BMP180;65856;52.178;21.176;2023-04-06T06:08:33;100908.20;;;3.00
76898;BMP180;65856;52.178;21.176;2023-04-06T06:11:04;100914.20;;;3.00
76898;BMP180;65856;52.178;21.176;2023-04-06T06:13:35;100908.60;;;3.02
76898;BMP180;65856;52.178;21.176;2023-04-06T06:16:07;100906.20;;;3.10
76898;BMP180;65856;52.178;21.176;2023-04-06T06:18:37;100907.20;;;3.10
76898;BMP180;65856;52.178;21.176;2023-04-06T06:21:08;100907.80;;;3.10
76898;BMP180;65856;52.178;21.176;2023-04-06T06:23:41;100905.80;;;3.10
76898;BMP180;65856;52.178;21.176;2023-04-06T06:26:12;100907.40;;;3.12
76898;BMP180;65856;52.178;21.176;2023-04-06T06:28:43;100910.60;;;3.10
76898;BMP180;65856;52.178;21.176;2023-04-06T06:31:13;100905.80;;;3.10
76898;BMP180;65856;52.178;21.176;2023-04-06T06:33:44;100904.60;;;3.10
76898;BMP180;65856;52.178;21.176;2023-04-06T06:36:15;100897.00;;;3.14
76898;BMP180;65856;52.178;21.176;2023-04-06T06:38:46;100897.60;;;3.20
76898;BMP180;65856;52.178;21.176;2023-04-06T06:41:17;100890.80;;;3.30
76898;BMP180;65856;52.178;21.176;2023-04-06T06:43:47;100889.20;;;3.30
76898;BMP180;65856;52.178;21.176;2023-04-06T06:46:18;100886.80;;;3.30
76898;BMP180;65856;52.178;21.176;2023-04-06T06:48:49;100885.00;;;3.36
76898;BMP180;65856;52.178;21.176;2023-04-06T06:51:19;100891.20;;;3.40
76898;BMP180;65856;52.178;21.176;2023-04-06T06:53:50;100878.60;;;3.40
76898;BMP180;65856;52.178;21.176;2023-04-06T06:56:21;100881.00;;;3.36
76898;BMP180;65856;52.178;21.176;2023-04-06T06:58:51;100880.00;;;3.40
76898;BMP180;65856;52.178;21.176;2023-04-06T07:01:22;100891.80;;;3.40
76898;BMP180;65856;52.178;21.176;2023-04-06T07:03:52;100888.40;;;3.40
76898;BMP180;65856;52.178;21.176;2023-04-06T07:06:23;100890.60;;;3.30
76898;BMP180;65856;52.178;21.176;2023-04-06T07:08:54;100882.00;;;3.40
76898;BMP180;65856;52.178;21.176;2023-04-06T07:11:25;100889.40;;;3.40
76898;BMP180;65856;52.178;21.176;2023-04-06T07:13:55;100886.40;;;3.40
76898;BMP180;65856;52.178;21.176;2023-04-06T07:16:26;100879.40;;;3.30
76898;BMP180;65856;52.178;21.176;2023-04-06T07:18:57;100879.80;;;3.30
76898;BMP180;65856;52.178;21.176;2023-04-06T07:21:27;100876.40;;;3.30
76898;BMP180;65856;52.178;21.176;2023-04-06T07:23:58;100879.40;;;3.30
76898;BMP180;65856;52.178;21.176;2023-04-06T07:26:29;100884.80;;;3.30
76898;BMP180;65856;52.178;21.176;2023-04-06T07:28:59;100885.40;;;3.30
76898;BMP180;65856;52.178;21.176;2023-04-06T07:31:30;100887.80;;;3.30
76898;BMP180;65856;52.178;21.176;2023-04-06T07:34:01;100886.60;;;3.22
76898;BMP180;65856;52.178;21.176;2023-04-06T07:36:31;100882.40;;;3.30
76898;BMP180;65856;52.178;21.176;2023-04-06T07:39:02;100882.20;;;3.26
76898;BMP180;65856;52.178;21.176;2023-04-06T07:41:33;100887.00;;;3.20
76898;BMP180;65856;52.178;21.176;2023-04-06T07:44:04;100879.40;;;3.20
76898;BMP180;65856;52.178;21.176;2023-04-06T07:46:34;100878.60;;;3.28
76898;BMP180;65856;52.178;21.176;2023-04-06T07:49:05;100879.20;;;3.32
76898;BMP180;65856;52.178;21.176;2023-04-06T07:51:39;100881.40;;;3.48
76898;BMP180;65856;52.178;21.176;2023-04-06T07:54:10;100884.20;;;3.50
76898;BMP180;65856;52.178;21.176;2023-04-06T07:56:40;100881.40;;;3.56
76898;BMP180;65856;52.178;21.176;2023-04-06T07:59:11;100885.40;;;3.60
76898;BMP180;65856;52.178;21.176;2023-04-06T08:01:42;100881.60;;;3.60
76898;BMP180;65856;52.178;21.176;2023-04-06T08:04:13;100874.40;;;3.60
76898;BMP180;65856;52.178;21.176;2023-04-06T08:06:44;100871.40;;;3.60
76898;BMP180;65856;52.178;21.176;2023-04-06T08:09:15;100867.00;;;3.60
76898;BMP180;65856;52.178;21.176;2023-04-06T08:11:45;100870.00;;;3.62
76898;BMP180;65856;52.178;21.176;2023-04-06T08:14:18;100869.20;;;3.70
76898;BMP180;65856;52.178;21.176;2023-04-06T08:16:49;100874.40;;;3.70
76898;BMP180;65856;52.178;21.176;2023-04-06T08:19:19;100869.40;;;3.70
76898;BMP180;65856;52.178;21.176;2023-04-06T08:21:50;100877.80;;;3.70
76898;BMP180;65856;52.178;21.176;2023-04-06T08:24:21;100864.20;;;3.70
76898;BMP180;65856;52.178;21.176;2023-04-06T08:26:52;100873.60;;;3.70
76898;BMP180;65856;52.178;21.176;2023-04-06T08:29:23;100869.80;;;3.60
76898;BMP180;65856;52.178;21.176;2023-04-06T08:31:53;100870.20;;;3.60
76898;BMP180;65856;52.178;21.176;2023-04-06T08:34:24;100865.60;;;3.50
76898;BMP180;65856;52.178;21.176;2023-04-06T08:36:55;100869.60;;;3.50
76898;BMP180;65856;52.178;21.176;2023-04-06T08:39:25;100866.20;;;3.60
76898;BMP180;65856;52.178;21.176;2023-04-06T08:41:57;100867.60;;;3.60
76898;BMP180;65856;52.178;21.176;2023-04-06T08:44:29;100857.60;;;3.58
76898;BMP180;65856;52.178;21.176;2023-04-06T08:47:01;100861.40;;;3.50
76898;BMP180;65856;52.178;21.176;2023-04-06T08:49:35;100856.20;;;3.60
76898;BMP180;65856;52.178;21.176;2023-04-06T08:52:09;100860.00;;;3.50
76898;BMP180;65856;52.178;21.176;2023-04-06T08:54:40;100858.60;;;3.50
76898;BMP180;65856;52.178;21.176;2023-04-06T08:57:11;100856.00;;;3.42
76898;BMP180;65856;52.178;21.176;2023-04-06T08:59:43;100858.20;;;3.40
76898;BMP180;65856;52.178;21.176;2023-04-06T09:02:19;100855.40;;;3.40
76898;BMP180;65856;52.178;21.176;2023-04-06T09:04:53;100843.00;;;3.40
76898;BMP180;65856;52.178;21.176;2023-04-06T09:07:24;100838.20;;;3.40
76898;BMP180;65856;52.178;21.176;2023-04-06T09:09:55;100831.40;;;3.40
76898;BMP180;65856;52.178;21.176;2023-04-06T09:12:28;100836.40;;;3.44
76898;BMP180;65856;52.178;21.176;2023-04-06T09:15:01;100830.00;;;3.50
76898;BMP180;65856;52.178;21.176;2023-04-06T09:17:33;100827.00;;;3.40
76898;BMP180;65856;52.178;21.176;2023-04-06T09:20:07;100828.40;;;3.40
76898;BMP180;65856;52.178;21.176;2023-04-06T09:22:41;100817.80;;;3.40
76898;BMP180;65856;52.178;21.176;2023-04-06T09:25:21;100819.40;;;3.40
76898;BMP180;65856;52.178;21.176;2023-04-06T09:28:02;100815.80;;;3.40
76898;BMP180;65856;52.178;21.176;2023-04-06T09:30:33;100820.60;;;3.40
76898;BMP180;65856;52.178;21.176;2023-04-06T09:33:05;100812.20;;;3.38
76898;BMP180;65856;52.178;21.176;2023-04-06T09:35:36;100804.20;;;3.34
76898;BMP180;65856;52.178;21.176;2023-04-06T09:38:13;100807.80;;;3.30
76898;BMP180;65856;52.178;21.176;2023-04-06T09:40:52;100809.40;;;3.30
76898;BMP180;65856;52.178;21.176;2023-04-06T09:43:29;100804.20;;;3.30
76898;BMP180;65856;52.178;21.176;2023-04-06T09:46:04;100798.80;;;3.30
76898;BMP180;65856;52.178;21.176;2023-04-06T09:48:36;100805.20;;;3.30
76898;BMP180;65856;52.178;21.176;2023-04-06T09:51:12;100805.60;;;3.30
76898;BMP180;65856;52.178;21.176;2023-04-06T09:53:45;100808.60;;;3.32
76898;BMP180;65856;52.178;21.176;2023-04-06T09:56:31;100798.60;;;3.40
76898;BMP180;65856;52.178;21.176;2023-04-06T09:59:05;100794.40;;;3.34
76898;BMP180;65856;52.178;21.176;2023-04-06T10:01:40;100793.80;;;3.30
76898;BMP180;65856;52.178;21.176;2023-04-06T10:04:27;100791.40;;;3.40
76898;BMP180;65856;52.178;21.176;2023-04-06T10:07:02;100794.80;;;3.48
76898;BMP180;65856;52.178;21.176;2023-04-06T10:09:35;100797.00;;;3.56
76898;BMP180;65856;52.178;21.176;2023-04-06T10:12:08;100793.40;;;3.50
76898;BMP180;65856;52.178;21.176;2023-04-06T10:14:40;100791.60;;;3.50
76898;BMP180;65856;52.178;21.176;2023-04-06T10:17:11;100788.20;;;3.40
76898;BMP180;65856;52.178;21.176;2023-04-06T10:19:52;100784.80;;;3.40
76898;BMP180;65856;52.178;21.176;2023-04-06T10:22:32;100782.40;;;3.40
76898;BMP180;65856;52.178;21.176;2023-04-06T10:25:05;100781.60;;;3.30
76898;BMP180;65856;52.178;21.176;2023-04-06T10:27:38;100783.60;;;3.34
76898;BMP180;65856;52.178;21.176;2023-04-06T10:30:10;100782.40;;;3.30
76898;BMP180;65856;52.178;21.176;2023-04-06T10:32:41;100778.40;;;3.26
76898;BMP180;65856;52.178;21.176;2023-04-06T10:35:16;100773.20;;;3.20
76898;BMP180;65856;52.178;21.176;2023-04-06T10:37:53;100771.80;;;3.20
76898;BMP180;65856;52.178;21.176;2023-04-06T10:40:28;100772.40;;;3.20
76898;BMP180;65856;52.178;21.176;2023-04-06T10:43:11;100760.60;;;3.20
76898;BMP180;65856;52.178;21.176;2023-04-06T10:45:43;100761.40;;;3.20
76898;BMP180;65856;52.178;21.176;2023-04-06T10:48:18;100762.20;;;3.20
76898;BMP180;65856;52.178;21.176;2023-04-06T10:50:51;100758.00;;;3.24
76898;BMP180;65856;52.178;21.176;2023-04-06T10:53:26;100762.80;;;3.30
76898;BMP180;65856;52.178;21.176;2023-04-06T10:55:58;100756.00;;;3.30
76898;BMP180;65856;52.178;21.176;2023-04-06T10:58:30;100749.20;;;3.30
76898;BMP180;65856;52.178;21.176;2023-04-06T11:01:00;100746.80;;;3.30
76898;BMP180;65856;52.178;21.176;2023-04-06T11:03:36;100742.40;;;3.30
76898;BMP180;65856;52.178;21.176;2023-04-06T11:06:19;100735.40;;;3.28
76898;BMP180;65856;52.178;21.176;2023-04-06T11:08:50;100732.80;;;3.20
76898;BMP180;65856;52.178;21.176;2023-04-06T11:11:23;100732.00;;;3.10
76898;BMP180;65856;52.178;21.176;2023-04-06T11:13:57;100735.20;;;3.10
76898;BMP180;65856;52.178;21.176;2023-04-06T11:16:31;100731.40;;;3.10
76898;BMP180;65856;52.178;21.176;2023-04-06T11:19:04;100725.00;;;3.24
76898;BMP180;65856;52.178;21.176;2023-04-06T11:21:38;100724.00;;;3.34
76898;BMP180;65856;52.178;21.176;2023-04-06T11:24:14;100725.00;;;3.36
76898;BMP180;65856;52.178;21.176;2023-04-06T11:26:47;100724.20;;;3.40
76898;BMP180;65856;52.178;21.176;2023-04-06T11:29:22;100723.60;;;3.50
76898;BMP180;65856;52.178;21.176;2023-04-06T11:31:58;100720.00;;;3.50
76898;BMP180;65856;52.178;21.176;2023-04-06T11:34:32;100723.60;;;3.50
76898;BMP180;65856;52.178;21.176;2023-04-06T11:37:07;100717.00;;;3.40
76898;BMP180;65856;52.178;21.176;2023-04-06T11:39:43;100711.80;;;3.40
76898;BMP180;65856;52.178;21.176;2023-04-06T11:42:20;100707.20;;;3.38
76898;BMP180;65856;52.178;21.176;2023-04-06T11:44:53;100704.40;;;3.30
76898;BMP180;65856;52.178;21.176;2023-04-06T11:47:31;100712.00;;;3.30
76898;BMP180;65856;52.178;21.176;2023-04-06T11:50:11;100701.80;;;3.30
76898;BMP180;65856;52.178;21.176;2023-04-06T11:52:44;100699.60;;;3.30
76898;BMP180;65856;52.178;21.176;2023-04-06T11:55:17;100687.40;;;3.40
76898;BMP180;65856;52.178;21.176;2023-04-06T11:57:48;100688.60;;;3.40
76898;BMP180;65856;52.178;21.176;2023-04-06T12:00:22;100686.80;;;3.50
76898;BMP180;65856;52.178;21.176;2023-04-06T12:02:52;100678.80;;;3.40
76898;BMP180;65856;52.178;21.176;2023-04-06T12:05:23;100676.40;;;3.40
76898;BMP180;65856;52.178;21.176;2023-04-06T12:07:54;100665.00;;;3.40
76898;BMP180;65856;52.178;21.176;2023-04-06T12:10:25;100658.60;;;3.40
76898;BMP180;65856;52.178;21.176;2023-04-06T12:12:55;100658.20;;;3.40
76898;BMP180;65856;52.178;21.176;2023-04-06T12:15:26;100657.60;;;3.50
76898;BMP180;65856;52.178;21.176;2023-04-06T12:17:57;100670.60;;;3.50
76898;BMP180;65856;52.178;21.176;2023-04-06T12:20:27;100675.00;;;3.50
76898;BMP180;65856;52.178;21.176;2023-04-06T12:22:58;100673.80;;;3.50
76898;BMP180;65856;52.178;21.176;2023-04-06T12:25:29;100679.40;;;3.50
76898;BMP180;65856;52.178;21.176;2023-04-06T12:27:59;100663.20;;;3.50
76898;BMP180;65856;52.178;21.176;2023-04-06T12:30:30;100676.60;;;3.50
76898;BMP180;65856;52.178;21.176;2023-04-06T12:33:01;100672.00;;;3.50
76898;BMP180;65856;52.178;21.176;2023-04-06T12:35:35;100676.40;;;3.50
76898;BMP180;65856;52.178;21.176;2023-04-06T12:38:06;100666.60;;;3.54
76898;BMP180;65856;52.178;21.176;2023-04-06T12:40:40;100663.80;;;3.58
76898;BMP180;65856;52.178;21.176;2023-04-06T12:43:11;100670.20;;;3.60
76898;BMP180;65856;52.178;21.176;2023-04-06T12:45:42;100665.00;;;3.60
76898;BMP180;65856;52.178;21.176;2023-04-06T12:48:13;100668.00;;;3.60
76898;BMP180;65856;52.178;21.176;2023-04-06T12:50:44;100665.00;;;3.60
76898;BMP180;65856;52.178;21.176;2023-04-06T12:53:14;100666.20;;;3.60
76898;BMP180;65856;52.178;21.176;2023-04-06T12:55:45;100663.40;;;3.60
76898;BMP180;65856;52.178;21.176;2023-04-06T12:58:15;100662.60;;;3.60
76898;BMP180;65856;52.178;21.176;2023-04-06T13:00:46;100658.20;;;3.60
76898;BMP180;65856;52.178;21.176;2023-04-06T13:03:18;100655.80;;;3.60
76898;BMP180;65856;52.178;21.176;2023-04-06T13:05:50;100645.40;;;3.60
76898;BMP180;65856;52.178;21.176;2023-04-06T13:08:21;100650.20;;;3.60
76898;BMP180;65856;52.178;21.176;2023-04-06T13:10:53;100641.40;;;3.60
76898;BMP180;65856;52.178;21.176;2023-04-06T13:13:27;100643.80;;;3.60
76898;BMP180;65856;52.178;21.176;2023-04-06T13:16:01;100634.40;;;3.60
76898;BMP180;65856;52.178;21.176;2023-04-06T13:18:32;100631.60;;;3.60
76898;BMP180;65856;52.178;21.176;2023-04-06T13:21:02;100633.40;;;3.50
76898;BMP180;65856;52.178;21.176;2023-04-06T13:23:32;100630.60;;;3.50
76898;BMP180;65856;52.178;21.176;2023-04-06T13:26:05;100630.00;;;3.50
76898;BMP180;65856;52.178;21.176;2023-04-06T13:28:37;100624.60;;;3.48
76898;BMP180;65856;52.178;21.176;2023-04-06T13:31:08;100625.20;;;3.48
76898;BMP180;65856;52.178;21.176;2023-04-06T13:33:39;100623.20;;;3.46
76898;BMP180;65856;52.178;21.176;2023-04-06T13:36:11;100630.60;;;3.46
76898;BMP180;65856;52.178;21.176;2023-04-06T13:38:41;100628.60;;;3.50
76898;BMP180;65856;52.178;21.176;2023-04-06T13:41:19;100626.60;;;3.48
76898;BMP180;65856;52.178;21.176;2023-04-06T13:43:50;100626.80;;;3.50
76898;BMP180;65856;52.178;21.176;2023-04-06T13:46:21;100629.00;;;3.48
76898;BMP180;65856;52.178;21.176;2023-04-06T13:48:53;100616.60;;;3.40
76898;BMP180;65856;52.178;21.176;2023-04-06T13:51:24;100617.40;;;3.40
76898;BMP180;65856;52.178;21.176;2023-04-06T13:53:55;100609.20;;;3.30
76898;BMP180;65856;52.178;21.176;2023-04-06T13:56:26;100606.40;;;3.30
76898;BMP180;65856;52.178;21.176;2023-04-06T13:58:57;100598.00;;;3.32
76898;BMP180;65856;52.178;21.176;2023-04-06T14:01:28;100591.60;;;3.40
76898;BMP180;65856;52.178;21.176;2023-04-06T14:03:59;100591.40;;;3.40
76898;BMP180;65856;52.178;21.176;2023-04-06T14:06:29;100594.00;;;3.44
76898;BMP180;65856;52.178;21.176;2023-04-06T14:09:00;100587.40;;;3.50
76898;BMP180;65856;52.178;21.176;2023-04-06T14:11:31;100593.60;;;3.60
76898;BMP180;65856;52.178;21.176;2023-04-06T14:14:02;100589.80;;;3.60
76898;BMP180;65856;52.178;21.176;2023-04-06T14:16:32;100580.00;;;3.60
76898;BMP180;65856;52.178;21.176;2023-04-06T14:19:03;100583.80;;;3.60
76898;BMP180;65856;52.178;21.176;2023-04-06T14:21:34;100595.80;;;3.70